createdAt,value
2023-04-10T00:00:59.717Z,15.20
2023-04-10T00:02:22.267Z,14.60
2023-04-10T00:03:45.918Z,14.80
2023-04-10T00:05:09.327Z,14.30
2023-04-10T00:06:32.758Z,14.65
2023-04-10T00:07:56.197Z,16.10
2023-04-10T00:09:21.075Z,14.82
2023-04-10T00:10:43.451Z,16.50
2023-04-10T00:12:07.398Z,15.63
2023-04-10T00:13:32.627Z,15.43
2023-04-10T00:14:55.982Z,15.15
2023-04-10T00:16:19.547Z,14.98
2023-04-10T00:17:43.064Z,16.33
2023-04-10T00:19:08.040Z,16.08
2023-04-10T00:20:31.414Z,14.93
2023-04-10T00:21:53.775Z,15.57
2023-04-10T00:23:17.138Z,17.48
2023-04-10T00:24:41.676Z,16.75
2023-04-10T00:26:05.182Z,15.45
2023-04-10T00:27:27.542Z,16.52
2023-04-10T00:28:50.989Z,15.93
2023-04-10T00:30:13.392Z,15.88
2023-04-10T00:31:36.819Z,16.75
2023-04-10T00:33:00.625Z,16.77
2023-04-10T00:34:23.104Z,15.63
2023-04-10T00:35:47.927Z,16.55
2023-04-10T00:37:10.578Z,15.70
2023-04-10T00:38:34.029Z,15.48
2023-04-10T00:39:58.830Z,15.30
2023-04-10T00:41:30.705Z,14.45
2023-04-10T00:42:54.130Z,14.68
2023-04-10T00:44:17.564Z,15.05
2023-04-10T00:45:41.349Z,14.93
2023-04-10T00:47:11.696Z,15.15
2023-04-10T00:48:35.256Z,15.63
2023-04-10T00:49:57.705Z,15.00
2023-04-10T00:51:21.591Z,17.25
2023-04-10T00:52:44.965Z,16.02
2023-04-10T00:54:10.297Z,16.00
2023-04-10T00:55:35.432Z,16.13
2023-04-10T00:56:59.767Z,15.88
2023-04-10T00:58:23.141Z,17.95
2023-04-10T00:59:48.281Z,16.45
2023-04-10T01:01:11.794Z,16.45
2023-04-10T01:02:35.458Z,17.08
2023-04-10T01:03:58.679Z,16.90
2023-04-10T01:05:22.541Z,16.75
2023-04-10T01:06:53.530Z,17.00
2023-04-10T01:08:24.167Z,17.05
2023-04-10T01:09:52.036Z,17.08
2023-04-10T01:11:25.126Z,16.70
2023-04-10T01:12:56.311Z,15.63
2023-04-10T01:14:28.874Z,18.40
2023-04-10T01:15:56.144Z,16.63
2023-04-10T01:17:23.181Z,16.77
2023-04-10T01:18:52.016Z,17.20
2023-04-10T01:20:19.056Z,17.90
2023-04-10T01:21:43.294Z,17.20
2023-04-10T01:23:20.587Z,15.55
2023-04-10T01:24:56.785Z,16.70
2023-04-10T01:26:32.414Z,17.90
2023-04-10T01:28:08.561Z,16.17
2023-04-10T01:29:34.510Z,15.52
2023-04-10T01:30:59.500Z,16.65
2023-04-10T01:32:23.886Z,17.35
2023-04-10T01:33:50.788Z,16.42
2023-04-10T01:35:14.476Z,17.52
2023-04-10T01:36:40.932Z,17.42
2023-04-10T01:38:06.684Z,17.17
2023-04-10T01:39:31.277Z,15.85
2023-04-10T01:40:55.450Z,16.45
2023-04-10T01:42:19.843Z,16.90
2023-04-10T01:43:42.817Z,16.42
2023-04-10T01:45:10.439Z,16.42
2023-04-10T01:46:34.762Z,16.15
2023-04-10T01:47:57.457Z,17.27
2023-04-10T01:49:21.227Z,17.20
2023-04-10T01:50:44.733Z,17.02
2023-04-10T01:52:08.325Z,17.00
2023-04-10T01:53:32.190Z,17.20
2023-04-10T01:54:56.079Z,16.85
2023-04-10T01:56:20.140Z,16.60
2023-04-10T01:57:43.551Z,17.95
2023-04-10T01:59:06.570Z,17.80
2023-04-10T02:00:31.582Z,17.52
2023-04-10T02:01:59.122Z,16.13
2023-04-10T02:03:22.969Z,17.98
2023-04-10T02:04:51.309Z,18.10
2023-04-10T02:06:19.388Z,17.85
2023-04-10T02:07:46.206Z,15.60
2023-04-10T02:09:16.954Z,17.45
2023-04-10T02:10:46.141Z,17.20
2023-04-10T02:12:14.142Z,17.35
2023-04-10T02:13:37.934Z,16.70
2023-04-10T02:15:02.849Z,17.13
2023-04-10T02:16:28.441Z,16.58
2023-04-10T02:17:52.324Z,18.00
2023-04-10T02:19:15.968Z,16.63
2023-04-10T02:20:39.434Z,16.30
2023-04-10T02:22:01.881Z,16.85
2023-04-10T02:23:25.397Z,17.17
2023-04-10T02:24:47.823Z,16.92
2023-04-10T02:26:11.317Z,16.38
2023-04-10T02:27:34.771Z,18.23
2023-04-10T02:28:58.137Z,16.13
2023-04-10T02:30:23.501Z,17.73
2023-04-10T02:31:47.494Z,17.35
2023-04-10T02:33:11.043Z,16.52
2023-04-10T02:34:34.434Z,16.75
2023-04-10T02:35:56.926Z,17.35
2023-04-10T02:37:20.581Z,16.55
2023-04-10T02:38:42.975Z,16.67
2023-04-10T02:40:07.468Z,17.58
2023-04-10T02:41:29.830Z,16.58
2023-04-10T02:42:53.218Z,17.70
2023-04-10T02:44:15.760Z,17.40
2023-04-10T02:45:39.147Z,17.17
2023-04-10T02:47:04.031Z,16.67
2023-04-10T02:48:27.639Z,16.70
2023-04-10T02:49:55.375Z,17.83
2023-04-10T02:51:18.719Z,17.33
2023-04-10T02:52:43.389Z,15.68
2023-04-10T02:54:06.781Z,16.38
2023-04-10T02:55:29.184Z,17.17
2023-04-10T02:56:52.540Z,18.30
2023-04-10T02:58:16.111Z,16.60
2023-04-10T02:59:38.476Z,18.27
2023-04-10T03:01:01.875Z,16.30
2023-04-10T03:02:27.202Z,16.60
2023-04-10T03:03:50.683Z,17.58
2023-04-10T03:05:14.358Z,16.95
2023-04-10T03:06:37.801Z,17.33
2023-04-10T03:08:01.200Z,16.75
2023-04-10T03:09:24.601Z,16.50
2023-04-10T03:10:48.656Z,16.88
2023-04-10T03:12:12.036Z,15.68
2023-04-10T03:13:34.409Z,16.30
2023-04-10T03:14:57.784Z,16.92
2023-04-10T03:16:21.220Z,18.38
2023-04-10T03:17:45.100Z,18.67
2023-04-10T03:19:08.566Z,17.60
2023-04-10T03:20:31.123Z,16.92
2023-04-10T03:21:54.559Z,16.95
2023-04-10T03:23:16.957Z,16.92
2023-04-10T03:24:41.032Z,17.88
2023-04-10T03:26:05.240Z,18.70
2023-04-10T03:27:29.063Z,18.48
2023-04-10T03:28:51.662Z,18.05
2023-04-10T03:30:15.442Z,18.20
2023-04-10T03:31:38.951Z,17.77
2023-04-10T03:33:02.767Z,17.02
2023-04-10T03:34:26.215Z,17.45
2023-04-10T03:35:49.632Z,17.35
2023-04-10T03:37:13.912Z,17.58
2023-04-10T03:38:36.416Z,16.25
2023-04-10T03:39:59.808Z,17.17
2023-04-10T03:41:25.448Z,17.50
2023-04-10T03:42:48.065Z,17.50
2023-04-10T03:44:11.447Z,18.40
2023-04-10T03:45:34.539Z,18.23
2023-04-10T03:46:57.993Z,17.70
2023-04-10T03:48:22.788Z,17.73
2023-04-10T03:49:45.168Z,15.98
2023-04-10T03:51:09.009Z,17.00
2023-04-10T03:52:31.683Z,17.67
2023-04-10T03:53:56.143Z,18.25
2023-04-10T03:55:19.115Z,16.33
2023-04-10T03:56:42.584Z,17.05
2023-04-10T03:58:05.155Z,16.48
2023-04-10T03:59:38.318Z,18.23
2023-04-10T04:01:02.393Z,17.50
2023-04-10T04:02:25.015Z,17.55
2023-04-10T04:03:49.986Z,16.40
2023-04-10T04:05:13.516Z,18.10
2023-04-10T04:06:37.130Z,16.13
2023-04-10T04:07:59.512Z,17.35
2023-04-10T04:09:22.934Z,16.80
2023-04-10T04:10:48.153Z,16.17
2023-04-10T04:12:11.561Z,16.55
2023-04-10T04:13:35.015Z,17.20
2023-04-10T04:14:57.416Z,16.65
2023-04-10T04:16:20.948Z,17.52
2023-04-10T04:17:43.508Z,17.35
2023-04-10T04:19:08.382Z,17.58
2023-04-10T04:20:31.753Z,17.15
2023-04-10T04:21:55.200Z,17.15
2023-04-10T04:23:18.572Z,19.15
2023-04-10T04:24:40.983Z,18.63
2023-04-10T04:26:04.453Z,18.45
2023-04-10T04:27:27.869Z,18.90
2023-04-10T04:28:51.758Z,19.83
2023-04-10T04:30:15.396Z,18.23
2023-04-10T04:31:37.841Z,19.50
2023-04-10T04:33:02.673Z,18.15
2023-04-10T04:34:26.513Z,19.25
2023-04-10T04:35:50.526Z,18.33
2023-04-10T04:37:12.923Z,18.50
2023-04-10T04:38:36.301Z,18.77
2023-04-10T04:39:59.654Z,18.15
2023-04-10T04:41:22.140Z,18.55
2023-04-10T04:42:45.897Z,17.27
2023-04-10T04:44:09.278Z,17.92
2023-04-10T04:45:31.674Z,18.33
2023-04-10T04:46:55.070Z,17.58
2023-04-10T04:48:18.597Z,18.27
2023-04-10T04:49:42.874Z,18.27
2023-04-10T04:51:08.403Z,18.02
2023-04-10T04:52:32.123Z,18.10
2023-04-10T04:53:55.741Z,17.83
2023-04-10T04:55:19.551Z,18.30
2023-04-10T04:56:42.905Z,16.42
2023-04-10T04:58:06.300Z,16.90
2023-04-10T04:59:29.740Z,17.52
2023-04-10T05:00:55.501Z,17.30
2023-04-10T05:02:19.248Z,18.33
2023-04-10T05:03:41.880Z,18.38
2023-04-10T05:05:07.250Z,18.48
2023-04-10T05:06:30.446Z,18.58
2023-04-10T05:07:54.058Z,17.58
2023-04-10T05:09:16.468Z,21.75
2023-04-10T05:10:39.864Z,18.60
2023-04-10T05:12:03.145Z,16.20
2023-04-10T05:13:26.576Z,16.10
2023-04-10T05:14:49.981Z,16.27
2023-04-10T05:16:12.558Z,16.90
2023-04-10T05:17:38.487Z,15.90
2023-04-10T05:19:01.956Z,16.33
2023-04-10T05:20:26.305Z,16.02
2023-04-10T05:21:49.756Z,15.65
2023-04-10T05:23:12.229Z,14.57
2023-04-10T05:24:35.746Z,15.60
2023-04-10T05:25:58.185Z,16.60
2023-04-10T05:27:21.756Z,15.20
2023-04-10T05:28:45.480Z,16.27
2023-04-10T05:30:10.122Z,15.50
2023-04-10T05:31:32.693Z,15.32
2023-04-10T05:32:56.239Z,15.68
2023-04-10T05:34:19.762Z,15.57
2023-04-10T05:35:44.539Z,15.93
2023-04-10T05:37:08.878Z,14.95
2023-04-10T05:38:31.337Z,14.82
2023-04-10T05:39:54.752Z,15.85
2023-04-10T05:41:17.143Z,15.50
2023-04-10T05:42:40.660Z,14.90
2023-04-10T05:44:03.168Z,15.32
2023-04-10T05:45:28.665Z,15.02
2023-04-10T05:46:52.132Z,15.70
2023-04-10T05:48:15.639Z,14.75
2023-04-10T05:49:39.035Z,14.88
2023-04-10T05:51:04.695Z,14.45
2023-04-10T05:52:28.099Z,14.95
2023-04-10T05:53:52.317Z,15.80
2023-04-10T05:55:14.788Z,15.70
2023-04-10T05:56:38.244Z,15.32
2023-04-10T05:58:01.733Z,15.48
2023-04-10T05:59:26.092Z,15.30
2023-04-10T06:00:49.507Z,14.07
2023-04-10T06:02:13.417Z,14.32
2023-04-10T06:03:37.208Z,14.18
2023-04-10T06:05:00.986Z,14.20
2023-04-10T06:06:26.487Z,13.95
2023-04-10T06:07:50.445Z,14.98
2023-04-10T06:09:12.861Z,13.95
2023-04-10T06:10:36.508Z,13.30
2023-04-10T06:11:59.921Z,13.98
2023-04-10T06:13:24.385Z,15.27
2023-04-10T06:14:48.779Z,15.38
2023-04-10T06:16:12.246Z,13.77
2023-04-10T06:17:35.768Z,13.63
2023-04-10T06:19:00.376Z,13.65
2023-04-10T06:20:24.100Z,13.68
2023-04-10T06:21:48.859Z,13.73
2023-04-10T06:23:13.230Z,14.25
2023-04-10T06:24:38.291Z,13.93
2023-04-10T06:26:03.385Z,13.25
2023-04-10T06:27:26.892Z,13.68
2023-04-10T06:28:50.852Z,13.80
2023-04-10T06:30:15.215Z,12.68
2023-04-10T06:31:38.636Z,13.98
2023-04-10T06:33:02.272Z,14.23
2023-04-10T06:34:25.885Z,14.65
2023-04-10T06:35:50.902Z,14.50
2023-04-10T06:37:15.690Z,14.32
2023-04-10T06:38:39.090Z,15.20
2023-04-10T06:40:07.343Z,14.35
2023-04-10T06:41:30.771Z,14.82
2023-04-10T06:42:54.177Z,14.43
2023-04-10T06:44:17.571Z,13.80
2023-04-10T06:45:41.066Z,14.75
2023-04-10T06:47:06.817Z,14.13
2023-04-10T06:48:30.343Z,15.13
2023-04-10T06:49:53.729Z,15.85
2023-04-10T06:51:16.208Z,15.43
2023-04-10T06:52:41.111Z,16.65
2023-04-10T06:54:04.532Z,16.67
2023-04-10T06:55:28.019Z,16.50
2023-04-10T06:56:51.620Z,15.43
2023-04-10T06:58:15.382Z,18.60
2023-04-10T06:59:38.785Z,17.55
2023-04-10T07:01:04.640Z,17.15
2023-04-10T07:02:28.424Z,17.52
2023-04-10T07:03:52.038Z,17.92
2023-04-10T07:05:15.969Z,17.23
2023-04-10T07:06:39.359Z,18.45
2023-04-10T07:08:04.164Z,17.83
2023-04-10T07:09:28.354Z,18.83
2023-04-10T07:10:51.784Z,18.35
2023-04-10T07:12:15.407Z,19.10
2023-04-10T07:13:40.017Z,19.27
2023-04-10T07:15:03.638Z,19.38
2023-04-10T07:16:27.524Z,20.30
2023-04-10T07:17:51.070Z,19.55
2023-04-10T07:19:14.581Z,19.02
2023-04-10T07:20:38.183Z,20.33
2023-04-10T07:22:01.883Z,20.17
2023-04-10T07:23:26.705Z,20.33
2023-04-10T07:24:50.094Z,21.33
2023-04-10T07:26:13.928Z,20.38
2023-04-10T07:27:37.364Z,19.95
2023-04-10T07:29:00.802Z,19.55
2023-04-10T07:30:24.257Z,19.15
2023-04-10T07:31:49.439Z,19.98
2023-04-10T07:33:12.995Z,19.75
2023-04-10T07:34:36.603Z,18.75
2023-04-10T07:35:59.987Z,19.75
2023-04-10T07:37:23.919Z,18.95
2023-04-10T07:38:48.726Z,18.52
2023-04-10T07:40:12.673Z,19.15
2023-04-10T07:41:36.336Z,19.00
2023-04-10T07:42:59.921Z,18.63
2023-04-10T07:44:23.578Z,17.08
2023-04-10T07:45:47.374Z,18.10
2023-04-10T07:47:11.382Z,18.60
2023-04-10T07:48:34.783Z,18.05
2023-04-10T07:49:58.166Z,18.48
2023-04-10T07:51:21.777Z,17.88
2023-04-10T07:52:45.305Z,17.50
2023-04-10T07:54:10.103Z,17.73
2023-04-10T07:55:33.499Z,17.20
2023-04-10T07:56:56.885Z,18.10
2023-04-10T07:58:20.277Z,17.63
2023-04-10T07:59:43.857Z,17.45
2023-04-10T08:01:08.407Z,17.75
2023-04-10T08:02:32.105Z,17.83
2023-04-10T08:03:56.267Z,18.50
2023-04-10T08:05:20.049Z,16.95
2023-04-10T08:06:43.454Z,17.05
2023-04-10T08:08:06.921Z,17.83
2023-04-10T08:09:31.687Z,17.70
2023-04-10T08:10:55.102Z,16.85
2023-04-10T08:12:18.462Z,17.10
2023-04-10T08:13:41.832Z,18.10
2023-04-10T08:15:05.834Z,17.73
2023-04-10T08:16:30.680Z,18.60
2023-04-10T08:17:53.821Z,19.23
2023-04-10T08:19:17.619Z,17.73
2023-04-10T08:20:41.095Z,18.00
2023-04-10T08:22:05.310Z,17.48
2023-04-10T08:23:28.701Z,17.35
2023-04-10T08:24:53.506Z,17.20
2023-04-10T08:26:16.885Z,17.63
2023-04-10T08:27:40.346Z,17.70
2023-04-10T08:29:03.787Z,19.63
2023-04-10T08:30:27.265Z,18.83
2023-04-10T08:31:50.978Z,17.23
2023-04-10T08:33:14.363Z,17.40
2023-04-10T08:34:37.742Z,17.65
2023-04-10T08:36:01.208Z,18.40
2023-04-10T08:37:26.314Z,18.05
2023-04-10T08:38:51.630Z,17.63
2023-04-10T08:40:16.698Z,17.67
2023-04-10T08:41:42.526Z,17.83
2023-04-10T08:43:06.105Z,17.25
2023-04-10T08:44:29.842Z,15.85
2023-04-10T08:45:54.081Z,17.02
2023-04-10T08:47:18.904Z,15.80
2023-04-10T08:48:49.353Z,16.42
2023-04-10T08:50:13.641Z,14.57
2023-04-10T08:51:40.488Z,15.57
2023-04-10T08:53:08.373Z,15.90
2023-04-10T08:54:35.425Z,16.05
2023-04-10T08:56:01.437Z,16.55
2023-04-10T08:57:26.925Z,15.43
2023-04-10T08:58:52.838Z,16.75
2023-04-10T09:00:23.398Z,15.40
2023-04-10T09:01:48.032Z,16.27
2023-04-10T09:03:14.286Z,14.93
2023-04-10T09:04:38.618Z,16.08
2023-04-10T09:06:05.027Z,14.82
2023-04-10T09:07:28.794Z,14.50
2023-04-10T09:08:52.154Z,15.65
2023-04-10T09:10:15.634Z,15.50
2023-04-10T09:12:01.399Z,15.32
2023-04-10T09:13:38.840Z,14.07
2023-04-10T09:15:02.325Z,12.85
2023-04-10T09:16:30.697Z,12.80
2023-04-10T09:17:58.465Z,14.00
2023-04-10T09:19:31.774Z,13.07
2023-04-10T09:21:07.160Z,13.85
2023-04-10T09:22:32.894Z,13.07
2023-04-10T09:24:02.234Z,12.05
2023-04-10T09:25:33.610Z,13.07
2023-04-10T09:26:57.277Z,12.02
2023-04-10T09:28:22.071Z,11.52
2023-04-10T09:29:48.532Z,14.05
2023-04-10T09:31:31.932Z,12.68
2023-04-10T09:32:55.492Z,13.43
2023-04-10T09:34:21.593Z,12.63
2023-04-10T09:35:45.023Z,12.10
2023-04-10T09:37:08.669Z,13.35
2023-04-10T09:38:32.316Z,12.15
2023-04-10T09:39:55.806Z,10.98
2023-04-10T09:41:19.201Z,12.27
2023-04-10T09:42:44.214Z,12.27
2023-04-10T09:44:10.648Z,12.20
2023-04-10T09:45:48.881Z,11.93
2023-04-10T09:47:20.030Z,12.27
2023-04-10T09:48:58.385Z,12.70
2023-04-10T09:50:38.867Z,11.48
2023-04-10T09:52:19.808Z,11.13
2023-04-10T09:53:50.921Z,11.02
2023-04-10T09:55:20.662Z,12.15
2023-04-10T09:56:47.282Z,12.20
2023-04-10T09:58:11.481Z,10.35
2023-04-10T09:59:38.509Z,9.65
2023-04-10T10:01:02.432Z,8.82
2023-04-10T10:02:27.301Z,10.27
2023-04-10T10:03:49.926Z,11.00
2023-04-10T10:05:13.567Z,10.40
2023-04-10T10:06:37.336Z,12.35
2023-04-10T10:08:00.733Z,10.38
2023-04-10T10:09:26.730Z,9.45
2023-04-10T10:10:54.779Z,9.52
2023-04-10T10:12:20.529Z,8.77
2023-04-10T10:13:48.681Z,8.82
2023-04-10T10:15:18.067Z,9.18
2023-04-10T10:16:46.675Z,8.48
2023-04-10T10:18:18.567Z,7.95
2023-04-10T10:19:46.764Z,7.32
2023-04-10T10:21:10.999Z,8.82
2023-04-10T10:22:34.904Z,8.88
2023-04-10T10:24:00.861Z,8.38
2023-04-10T10:25:24.966Z,7.32
2023-04-10T10:26:49.125Z,8.25
2023-04-10T10:28:14.920Z,9.65
2023-04-10T10:29:39.399Z,9.00
2023-04-10T10:31:05.082Z,7.95
2023-04-10T10:32:29.163Z,10.40
2023-04-10T10:33:53.711Z,8.32
2023-04-10T10:35:17.705Z,8.57
2023-04-10T10:36:42.096Z,8.00
2023-04-10T10:38:06.037Z,7.88
2023-04-10T10:39:34.239Z,7.97
2023-04-10T10:41:03.714Z,7.55
2023-04-10T10:42:32.043Z,6.63
2023-04-10T10:44:01.482Z,6.50
2023-04-10T10:45:30.880Z,7.18
2023-04-10T10:47:04.317Z,7.10
2023-04-10T10:48:27.693Z,6.80
2023-04-10T10:49:58.924Z,7.38
2023-04-10T10:51:22.296Z,7.38
2023-04-10T10:52:49.095Z,7.93
2023-04-10T10:54:30.734Z,8.07
2023-04-10T10:55:54.125Z,7.97
2023-04-10T10:57:47.068Z,8.90
2023-04-10T10:59:14.178Z,8.18
2023-04-10T11:01:11.596Z,7.82
2023-04-10T11:02:36.552Z,8.75
2023-04-10T11:04:01.323Z,8.00
2023-04-10T11:05:49.815Z,7.30
2023-04-10T11:07:16.245Z,7.13
2023-04-10T11:08:43.924Z,7.43
2023-04-10T11:10:08.398Z,8.00
2023-04-10T11:11:33.587Z,5.75
2023-04-10T11:13:16.101Z,6.63
2023-04-10T11:14:39.980Z,7.18
2023-04-10T11:16:05.103Z,7.93
2023-04-10T11:17:49.745Z,7.75
2023-04-10T11:19:15.920Z,6.80
2023-04-10T11:21:10.651Z,6.82
2023-04-10T11:23:11.738Z,6.47
2023-04-10T11:25:10.427Z,7.13
2023-04-10T11:26:43.154Z,6.80
2023-04-10T11:28:06.816Z,8.15
2023-04-10T11:29:39.030Z,7.03
2023-04-10T11:31:19.978Z,6.97
2023-04-10T11:32:42.740Z,7.05
2023-04-10T11:34:11.508Z,7.57
2023-04-10T11:35:35.905Z,5.97
2023-04-10T11:36:59.431Z,7.03
2023-04-10T11:38:23.546Z,6.28
2023-04-10T11:39:46.961Z,7.20
2023-04-10T11:41:11.538Z,7.10
2023-04-10T11:42:34.940Z,6.50
2023-04-10T11:43:58.976Z,6.70
2023-04-10T11:45:29.408Z,6.97
2023-04-10T11:46:52.946Z,7.57
2023-04-10T11:48:17.287Z,7.22
2023-04-10T11:49:42.039Z,7.57
2023-04-10T11:51:08.940Z,7.60
2023-04-10T11:52:33.547Z,7.45
2023-04-10T11:54:08.246Z,7.40
2023-04-10T11:55:38.288Z,7.05
2023-04-10T11:57:03.279Z,7.53
2023-04-10T11:58:26.723Z,6.30
2023-04-10T11:59:52.209Z,6.90
2023-04-10T12:01:18.670Z,8.02
2023-04-10T12:02:53.579Z,7.32
2023-04-10T12:04:20.788Z,7.65
2023-04-10T12:05:49.465Z,7.80
2023-04-10T12:07:13.058Z,8.38
2023-04-10T12:08:36.742Z,7.93
2023-04-10T12:10:01.528Z,7.18
2023-04-10T12:11:26.563Z,7.07
2023-04-10T12:12:49.958Z,7.18
2023-04-10T12:14:13.384Z,6.70
2023-04-10T12:15:38.571Z,6.35
2023-04-10T12:17:02.849Z,6.07
2023-04-10T12:18:26.141Z,6.22
2023-04-10T12:19:49.636Z,6.45
2023-04-10T12:21:14.706Z,6.90
2023-04-10T12:22:38.269Z,6.57
2023-04-10T12:24:01.659Z,6.45
2023-04-10T12:25:25.083Z,6.70
2023-04-10T12:26:50.556Z,6.30
2023-04-10T12:28:19.765Z,6.57
2023-04-10T12:29:43.317Z,6.53
2023-04-10T12:31:07.991Z,6.47
2023-04-10T12:32:31.533Z,5.93
2023-04-10T12:33:57.658Z,6.10
2023-04-10T12:35:21.316Z,6.13
2023-04-10T12:36:54.043Z,5.57
2023-04-10T12:38:17.500Z,5.97
2023-04-10T12:39:41.025Z,5.72
2023-04-10T12:41:04.970Z,5.85
2023-04-10T12:42:28.509Z,5.43
2023-04-10T12:43:53.366Z,5.22
2023-04-10T12:45:15.957Z,5.28
2023-04-10T12:46:39.742Z,5.68
2023-04-10T12:48:03.278Z,5.47
2023-04-10T12:49:26.748Z,6.05
2023-04-10T12:50:50.793Z,3.75
2023-04-10T12:52:24.084Z,4.65
2023-04-10T12:53:47.713Z,4.18
2023-04-10T12:55:12.175Z,4.72
2023-04-10T12:56:43.027Z,3.72
2023-04-10T12:58:17.538Z,4.80
2023-04-10T12:59:44.990Z,4.90
2023-04-10T13:01:10.790Z,4.88
2023-04-10T13:02:34.457Z,3.60
2023-04-10T13:03:58.038Z,4.60
2023-04-10T13:05:22.064Z,4.60
2023-04-10T13:06:45.985Z,4.50
2023-04-10T13:08:10.836Z,4.32
2023-04-10T13:09:34.217Z,4.65
2023-04-10T13:11:02.733Z,4.25
2023-04-10T13:12:28.786Z,3.10
2023-04-10T13:13:54.540Z,4.97
2023-04-10T13:15:18.079Z,5.07
2023-04-10T13:16:41.585Z,4.10
2023-04-10T13:18:07.051Z,5.18
2023-04-10T13:19:30.547Z,4.70
2023-04-10T13:20:53.953Z,4.78
2023-04-10T13:22:17.563Z,5.38
2023-04-10T13:23:42.494Z,4.55
2023-04-10T13:25:06.728Z,5.97
2023-04-10T13:26:30.084Z,5.18
2023-04-10T13:27:53.987Z,4.82
2023-04-10T13:29:17.388Z,4.55
2023-04-10T13:30:46.471Z,5.53
2023-04-10T13:32:10.135Z,4.78
2023-04-10T13:33:33.556Z,6.13
2023-04-10T13:34:57.363Z,5.13
2023-04-10T13:36:21.009Z,6.10
2023-04-10T13:37:46.000Z,25.08
2023-04-10T13:39:10.977Z,40.78
2023-04-10T13:40:35.253Z,7.70
2023-04-10T13:41:58.685Z,6.00
2023-04-10T13:43:22.084Z,5.63
2023-04-10T13:44:45.506Z,6.20
2023-04-10T13:46:09.987Z,4.75
2023-04-10T13:47:33.504Z,5.82
2023-04-10T13:48:57.153Z,5.78
2023-04-10T13:50:20.746Z,5.70
2023-04-10T13:51:44.609Z,6.20
2023-04-10T13:53:10.269Z,5.30
2023-04-10T13:54:35.096Z,5.50
2023-04-10T13:55:58.668Z,4.40
2023-04-10T13:57:22.113Z,5.53
2023-04-10T13:58:47.391Z,5.93
2023-04-10T14:00:11.422Z,4.55
2023-04-10T14:01:34.940Z,5.22
2023-04-10T14:02:58.636Z,5.40
2023-04-10T14:04:22.165Z,5.70
2023-04-10T14:05:45.744Z,5.75
2023-04-10T14:07:10.068Z,5.72
2023-04-10T14:08:33.502Z,5.45
2023-04-10T14:09:58.282Z,4.57
2023-04-10T14:11:22.517Z,5.05
2023-04-10T14:12:45.896Z,5.80
2023-04-10T14:14:09.326Z,4.95
2023-04-10T14:15:32.714Z,5.32
2023-04-10T14:16:56.466Z,5.43
2023-04-10T14:18:19.891Z,4.82
2023-04-10T14:19:45.420Z,4.25
2023-04-10T14:21:08.943Z,4.32
2023-04-10T14:22:32.388Z,5.25
2023-04-10T14:23:55.907Z,4.78
2023-04-10T14:25:20.865Z,4.47
2023-04-10T14:26:44.319Z,4.65
2023-04-10T14:28:07.795Z,4.78
2023-04-10T14:30:57.782Z,4.82
2023-04-10T14:32:21.203Z,4.97
2023-04-10T14:33:44.605Z,4.25
2023-04-10T14:35:08.943Z,5.70
2023-04-10T14:36:33.242Z,5.28
2023-04-10T14:37:56.736Z,5.28
2023-04-10T14:39:20.214Z,4.47
2023-04-10T14:40:48.458Z,4.90
2023-04-10T14:42:12.633Z,5.03
2023-04-10T14:43:36.022Z,5.32
2023-04-10T14:44:59.776Z,5.10
2023-04-10T14:46:23.189Z,5.25
2023-04-10T14:47:47.402Z,5.30
2023-04-10T14:49:12.035Z,5.50
2023-04-10T14:50:35.790Z,6.35
2023-04-10T14:51:59.193Z,5.30
2023-04-10T14:53:23.114Z,5.18
2023-04-10T14:54:46.495Z,6.45
2023-04-10T14:56:15.945Z,6.95
2023-04-10T14:57:39.559Z,5.22
2023-04-10T14:59:03.007Z,5.85
2023-04-10T15:00:26.684Z,6.72
2023-04-10T15:01:50.298Z,5.45
2023-04-10T15:03:13.999Z,6.00
2023-04-10T15:04:37.848Z,5.38
2023-04-10T15:06:01.577Z,6.38
2023-04-10T15:07:25.099Z,6.00
2023-04-10T15:08:48.667Z,5.57
2023-04-10T15:10:12.365Z,6.18
2023-04-10T15:11:37.204Z,6.07
2023-04-10T15:13:00.594Z,4.72
2023-04-10T15:14:24.018Z,5.88
2023-04-10T15:15:48.391Z,5.22
2023-04-10T15:17:11.851Z,6.13
2023-04-10T15:18:35.365Z,5.70
2023-04-10T15:19:59.193Z,4.78
2023-04-10T15:21:22.639Z,6.20
2023-04-10T15:22:48.340Z,6.30
2023-04-10T15:24:11.760Z,6.13
2023-04-10T15:25:35.355Z,6.00
2023-04-10T15:27:03.581Z,6.30
2023-04-10T15:28:28.086Z,4.93
2023-04-10T15:29:51.548Z,5.38
2023-04-10T15:31:15.036Z,6.45
2023-04-10T15:32:39.755Z,5.15
2023-04-10T15:34:03.407Z,6.30
2023-04-10T15:35:28.684Z,6.03
2023-04-10T15:36:52.053Z,4.35
2023-04-10T15:38:15.489Z,6.00
2023-04-10T15:39:38.870Z,5.53
2023-04-10T15:41:02.260Z,5.22
2023-04-10T15:42:28.068Z,5.15
2023-04-10T15:43:52.331Z,5.60
2023-04-10T15:45:15.927Z,4.72
2023-04-10T15:46:39.368Z,5.03
2023-04-10T15:48:07.245Z,5.25
2023-04-10T15:49:37.848Z,4.88
2023-04-10T15:51:05.576Z,4.20
2023-04-10T15:52:31.679Z,5.03
2023-04-10T15:53:55.429Z,5.57
2023-04-10T15:55:19.127Z,5.47
2023-04-10T15:56:42.532Z,5.22
2023-04-10T15:58:07.318Z,5.25
2023-04-10T15:59:30.759Z,5.10
2023-04-10T16:00:54.264Z,4.97
2023-04-10T16:02:17.719Z,5.32
2023-04-10T16:03:41.606Z,4.45
2023-04-10T16:05:05.344Z,4.78
2023-04-10T16:06:29.132Z,5.55
2023-04-10T16:07:52.511Z,4.85
2023-04-10T16:09:25.448Z,6.00
2023-04-10T16:10:49.696Z,5.40
2023-04-10T16:12:13.665Z,4.78
2023-04-10T16:13:41.729Z,4.70
2023-04-10T16:15:08.264Z,5.28
2023-04-10T16:16:31.917Z,5.40
2023-04-10T16:17:56.171Z,4.95
2023-04-10T16:19:19.655Z,5.30
2023-04-10T16:20:43.403Z,5.70
2023-04-10T16:22:06.825Z,5.30
2023-04-10T16:23:30.260Z,4.53
2023-04-10T16:24:57.234Z,5.35
2023-04-10T16:26:21.268Z,4.63
2023-04-10T16:27:44.722Z,5.43
2023-04-10T16:29:09.587Z,5.47
2023-04-10T16:30:33.113Z,4.55
2023-04-10T16:31:56.634Z,4.60
2023-04-10T16:33:20.097Z,5.47
2023-04-10T16:34:45.983Z,5.43
2023-04-10T16:36:10.080Z,4.93
2023-04-10T16:37:33.454Z,5.10
2023-04-10T16:38:57.136Z,4.65
2023-04-10T16:40:22.647Z,4.82
2023-04-10T16:41:46.059Z,5.10
2023-04-10T16:43:09.539Z,5.05
2023-04-10T16:44:34.513Z,5.07
2023-04-10T16:46:00.205Z,5.22
2023-04-10T16:47:23.637Z,5.00
2023-04-10T16:48:47.082Z,5.03
2023-04-10T16:50:11.662Z,5.40
2023-04-10T16:51:35.271Z,4.80
2023-04-10T16:52:59.335Z,4.97
2023-04-10T16:54:21.746Z,4.55
2023-04-10T16:55:45.177Z,5.53
2023-04-10T16:57:08.645Z,4.80
2023-04-10T16:58:32.320Z,5.35
2023-04-10T16:59:59.422Z,4.85
2023-04-10T17:01:25.298Z,5.60
2023-04-10T17:02:49.931Z,5.15
2023-04-10T17:04:13.487Z,5.28
2023-04-10T17:05:37.318Z,5.30
2023-04-10T17:07:00.764Z,4.90
2023-04-10T17:08:24.429Z,4.90
2023-04-10T17:09:47.815Z,5.50
2023-04-10T17:11:12.509Z,5.43
2023-04-10T17:12:36.180Z,4.43
2023-04-10T17:13:59.640Z,5.20
2023-04-10T17:15:24.477Z,5.43
2023-04-10T17:16:48.014Z,5.18
2023-04-10T17:18:12.556Z,5.38
2023-04-10T17:19:36.324Z,4.18
2023-04-10T17:20:59.790Z,5.30
2023-04-10T17:22:23.392Z,5.03
2023-04-10T17:23:46.830Z,5.28
2023-04-10T17:25:11.089Z,5.15
2023-04-10T17:26:34.646Z,4.90
2023-04-10T17:27:58.771Z,5.03
2023-04-10T17:29:22.299Z,5.45
2023-04-10T17:30:48.375Z,4.68
2023-04-10T17:32:12.041Z,5.40
2023-04-10T17:33:35.436Z,5.68
2023-04-10T17:34:58.902Z,4.85
2023-04-10T17:36:22.443Z,5.45
2023-04-10T17:37:45.916Z,5.13
2023-04-10T17:39:09.303Z,5.63
2023-04-10T17:40:33.267Z,4.32
2023-04-10T17:42:06.243Z,5.07
2023-04-10T17:43:29.900Z,5.40
2023-04-10T17:44:52.349Z,5.50
2023-04-10T17:46:17.443Z,4.65
2023-04-10T17:47:41.286Z,5.10
2023-04-10T17:49:05.084Z,5.13
2023-04-10T17:50:28.669Z,4.32
2023-04-10T17:51:52.107Z,5.40
2023-04-10T17:53:16.396Z,5.32
2023-04-10T17:54:39.869Z,4.80
2023-04-10T17:56:03.400Z,5.25
2023-04-10T17:57:27.163Z,4.85
2023-04-10T17:58:50.672Z,5.50
2023-04-10T18:00:16.153Z,5.10
2023-04-10T18:01:41.532Z,5.20
2023-04-10T18:03:05.401Z,5.47
2023-04-10T18:04:28.960Z,4.70
2023-04-10T18:05:52.371Z,5.03
2023-04-10T18:07:15.927Z,4.90
2023-04-10T18:08:39.368Z,5.10
2023-04-10T18:10:02.829Z,4.78
2023-04-10T18:11:26.285Z,5.03
2023-04-10T18:12:49.834Z,4.90
2023-04-10T18:14:13.286Z,4.68
2023-04-10T18:15:37.007Z,5.18
2023-04-10T18:17:02.121Z,4.75
2023-04-10T18:18:25.640Z,4.90
2023-04-10T18:19:49.236Z,4.10
2023-04-10T18:21:13.591Z,5.00
2023-04-10T18:22:37.203Z,5.30
2023-04-10T18:24:00.675Z,5.28
2023-04-10T18:25:24.219Z,5.47
2023-04-10T18:26:49.237Z,5.00
2023-04-10T18:28:15.380Z,5.40
2023-04-10T18:29:40.052Z,4.75
2023-04-10T18:31:03.681Z,4.95
2023-04-10T18:32:28.738Z,5.10
2023-04-10T18:35:18.854Z,4.65